createdAt,value
2017-08-08T00:00:44.893Z,59.10
2017-08-08T00:03:12.601Z,59.50
2017-08-08T00:05:40.255Z,59.30
2017-08-08T00:08:08.184Z,59.80
2017-08-08T00:10:35.769Z,59.40
2017-08-08T00:13:04.258Z,59.90
2017-08-08T00:15:32.287Z,59.90
2017-08-08T00:17:59.848Z,60.10
2017-08-08T00:20:27.400Z,60.00
2017-08-08T00:22:55.283Z,60.00
2017-08-08T00:25:22.834Z,59.90
2017-08-08T00:27:50.373Z,60.00
2017-08-08T00:30:18.255Z,59.80
2017-08-08T00:32:45.818Z,59.40
2017-08-08T00:35:13.380Z,59.40
2017-08-08T00:37:41.285Z,58.90
2017-08-08T00:40:08.836Z,59.40
2017-08-08T00:42:36.373Z,59.30
2017-08-08T00:45:04.232Z,59.10
2017-08-08T00:47:31.773Z,59.00
2017-08-08T00:49:59.313Z,58.80
2017-08-08T00:52:27.221Z,58.90
2017-08-08T00:54:54.778Z,58.80
2017-08-08T00:57:22.345Z,58.50
2017-08-08T00:59:50.220Z,57.90
2017-08-08T01:02:17.784Z,58.10
2017-08-08T01:04:45.340Z,58.40
2017-08-08T01:07:14.012Z,58.00
2017-08-08T01:09:41.585Z,57.70
2017-08-08T01:12:09.142Z,58.20
2017-08-08T01:14:36.983Z,57.50
2017-08-08T01:17:04.533Z,57.70
2017-08-08T01:19:32.094Z,57.70
2017-08-08T01:22:00.196Z,57.40
2017-08-08T01:24:27.757Z,57.80
2017-08-08T01:26:55.679Z,56.70
2017-08-08T01:29:23.553Z,56.80
2017-08-08T01:31:51.091Z,56.50
2017-08-08T01:34:18.635Z,56.50
2017-08-08T01:36:46.562Z,55.90
2017-08-08T01:39:14.083Z,55.70
2017-08-08T01:41:41.630Z,56.00
2017-08-08T01:44:09.556Z,55.60
2017-08-08T01:46:37.109Z,55.60
2017-08-08T01:49:04.639Z,55.70
2017-08-08T01:51:32.530Z,55.90
2017-08-08T01:54:00.136Z,56.00
2017-08-08T01:56:27.705Z,56.40
2017-08-08T01:58:55.718Z,56.00
2017-08-08T02:01:23.263Z,55.70
2017-08-08T02:03:50.828Z,56.10
2017-08-08T02:06:18.701Z,56.50
2017-08-08T02:08:46.259Z,56.70
2017-08-08T02:11:13.804Z,56.80
2017-08-08T02:13:41.712Z,56.50
2017-08-08T02:16:09.271Z,55.90
2017-08-08T02:18:36.846Z,56.60
2017-08-08T02:21:05.499Z,56.70
2017-08-08T02:23:33.075Z,56.60
2017-08-08T02:26:00.654Z,56.50
2017-08-08T02:28:29.313Z,56.10
2017-08-08T02:30:56.876Z,56.00
2017-08-08T02:33:24.441Z,56.50
2017-08-08T02:35:53.276Z,57.10
2017-08-08T02:38:20.819Z,56.60
2017-08-08T02:40:48.363Z,56.60
2017-08-08T02:43:16.300Z,56.70
2017-08-08T02:45:43.996Z,56.80
2017-08-08T02:48:12.319Z,57.20
2017-08-08T02:50:40.315Z,57.10
2017-08-08T02:53:07.877Z,57.00
2017-08-08T02:55:35.421Z,57.10
2017-08-08T02:58:03.509Z,57.30
2017-08-08T03:00:31.073Z,57.40
2017-08-08T03:02:58.642Z,58.00
2017-08-08T03:05:27.288Z,57.20
2017-08-08T03:07:54.831Z,57.80
2017-08-08T03:10:22.384Z,57.70
2017-08-08T03:12:50.302Z,58.40
2017-08-08T03:15:17.850Z,58.20
2017-08-08T03:17:45.407Z,58.60
2017-08-08T03:20:13.280Z,58.70
2017-08-08T03:22:40.825Z,58.70
2017-08-08T03:25:08.388Z,58.80
2017-08-08T03:27:36.268Z,58.90
2017-08-08T03:30:03.829Z,58.60
2017-08-08T03:32:31.373Z,58.60
2017-08-08T03:34:59.262Z,59.00
2017-08-08T03:37:26.820Z,58.60
2017-08-08T03:39:54.369Z,58.70
2017-08-08T03:42:22.646Z,59.30
2017-08-08T03:44:50.197Z,58.90
2017-08-08T03:47:17.767Z,58.90
2017-08-08T03:49:45.831Z,59.00
2017-08-08T03:52:13.410Z,60.00
2017-08-08T03:54:41.010Z,58.60
2017-08-08T03:57:09.028Z,58.60
2017-08-08T03:59:36.602Z,59.10
2017-08-08T04:02:04.173Z,58.90
2017-08-08T04:04:33.014Z,59.10
2017-08-08T04:07:00.593Z,59.10
2017-08-08T04:09:28.143Z,58.70
2017-08-08T04:11:56.233Z,58.50
2017-08-08T04:14:23.884Z,58.70
2017-08-08T04:16:51.439Z,58.60
2017-08-08T04:19:19.381Z,58.30
2017-08-08T04:21:46.945Z,58.40
2017-08-08T04:24:14.501Z,58.20
2017-08-08T04:26:42.396Z,57.90
2017-08-08T04:29:09.961Z,57.70
2017-08-08T04:31:37.512Z,57.50
2017-08-08T04:34:05.584Z,57.30
2017-08-08T04:36:33.133Z,56.40
2017-08-08T04:39:00.705Z,56.50
2017-08-08T04:41:28.790Z,56.50
2017-08-08T04:43:56.356Z,56.60
2017-08-08T04:46:23.931Z,56.70
2017-08-08T04:48:52.591Z,56.90
2017-08-08T04:51:20.152Z,56.90
2017-08-08T04:53:47.699Z,56.90
2017-08-08T04:56:15.586Z,56.90
2017-08-08T04:58:43.374Z,56.80
2017-08-08T05:01:10.940Z,56.50
2017-08-08T05:03:38.973Z,56.40
2017-08-08T05:06:06.530Z,56.00
2017-08-08T05:08:34.097Z,56.00
2017-08-08T05:11:02.198Z,55.70
2017-08-08T05:13:29.761Z,55.80
2017-08-08T05:15:57.328Z,55.90
2017-08-08T05:18:25.354Z,55.70
2017-08-08T05:20:52.925Z,55.70
2017-08-08T05:23:20.482Z,55.60
2017-08-08T05:25:48.366Z,55.20
2017-08-08T05:28:16.683Z,55.20
2017-08-08T05:30:44.301Z,55.10
2017-08-08T05:33:13.415Z,54.80
2017-08-08T05:35:40.970Z,54.70
2017-08-08T05:38:08.543Z,54.20
2017-08-08T05:40:36.575Z,54.20
2017-08-08T05:43:04.910Z,55.00
2017-08-08T05:45:32.490Z,54.00
2017-08-08T05:48:00.534Z,54.30
2017-08-08T05:50:28.073Z,53.80
2017-08-08T05:52:55.639Z,54.20
2017-08-08T05:55:23.549Z,53.70
2017-08-08T05:57:51.119Z,53.70
2017-08-08T06:00:18.689Z,53.40
2017-08-08T06:02:47.362Z,53.00
2017-08-08T06:05:14.996Z,52.90
2017-08-08T06:07:42.556Z,53.20
2017-08-08T06:10:10.536Z,52.70
2017-08-08T06:12:38.085Z,52.80
2017-08-08T06:15:05.708Z,53.10
2017-08-08T06:17:33.754Z,53.00
2017-08-08T06:20:02.072Z,53.70
2017-08-08T06:22:29.632Z,53.40
2017-08-08T06:24:57.545Z,53.30
2017-08-08T06:27:25.145Z,53.20
2017-08-08T06:29:52.920Z,53.10
2017-08-08T06:32:20.940Z,52.90
2017-08-08T06:34:48.508Z,52.90
2017-08-08T06:37:16.075Z,52.50
2017-08-08T06:39:44.752Z,52.70
2017-08-08T06:42:12.302Z,52.60
2017-08-08T06:44:39.872Z,52.60
2017-08-08T06:47:08.553Z,51.50
2017-08-08T06:49:36.264Z,52.20
2017-08-08T06:52:03.819Z,52.00
2017-08-08T06:54:31.794Z,52.30
2017-08-08T06:56:59.362Z,52.40
2017-08-08T06:59:26.928Z,52.20
2017-08-08T07:01:54.860Z,52.20
2017-08-08T07:04:22.403Z,52.70
2017-08-08T07:06:50.730Z,52.70
2017-08-08T07:09:18.663Z,51.80
2017-08-08T07:11:46.217Z,51.70
2017-08-08T07:14:14.522Z,52.00
2017-08-08T07:16:42.559Z,51.90
2017-08-08T07:19:10.894Z,52.30
2017-08-08T07:21:38.458Z,52.70
2017-08-08T07:24:06.345Z,51.60
2017-08-08T07:26:33.966Z,52.60
2017-08-08T07:29:01.504Z,51.80
2017-08-08T07:31:29.776Z,51.70
2017-08-08T07:33:58.353Z,52.00
2017-08-08T07:36:25.915Z,52.00
2017-08-08T07:38:54.579Z,51.50
2017-08-08T07:41:22.918Z,51.70
2017-08-08T07:43:50.482Z,51.30
2017-08-08T07:46:18.364Z,51.70
2017-08-08T07:48:45.936Z,51.80
2017-08-08T07:51:13.482Z,51.50
2017-08-08T07:53:41.565Z,51.50
2017-08-08T07:56:10.020Z,50.90
2017-08-08T07:58:37.612Z,50.80
2017-08-08T08:01:05.495Z,51.70
2017-08-08T08:03:33.076Z,50.90
2017-08-08T08:06:00.655Z,51.00
2017-08-08T08:08:28.561Z,50.60
2017-08-08T08:10:56.131Z,50.20
2017-08-08T08:13:24.546Z,50.50
2017-08-08T08:15:52.562Z,50.00
2017-08-08T08:18:20.148Z,49.60
2017-08-08T08:20:47.818Z,50.10
2017-08-08T08:23:15.761Z,50.40
2017-08-08T08:25:43.692Z,49.80
2017-08-08T08:28:11.245Z,49.90
2017-08-08T08:30:39.157Z,50.00
2017-08-08T08:33:07.471Z,49.70
2017-08-08T08:35:35.134Z,49.20
2017-08-08T08:38:03.167Z,49.10
2017-08-08T08:40:30.975Z,49.20
2017-08-08T08:42:58.538Z,49.30
2017-08-08T08:45:27.249Z,49.50
2017-08-08T08:47:55.807Z,49.50
2017-08-08T08:50:23.434Z,49.60
2017-08-08T08:52:51.431Z,50.50
2017-08-08T08:55:18.991Z,49.60
2017-08-08T08:57:47.551Z,49.30
2017-08-08T09:00:16.244Z,49.70
2017-08-08T09:02:43.933Z,49.50
2017-08-08T09:05:11.523Z,49.40
2017-08-08T09:07:39.495Z,49.50
2017-08-08T09:10:07.299Z,49.50
2017-08-08T09:12:34.871Z,49.70
2017-08-08T09:15:02.800Z,49.80
2017-08-08T09:17:30.550Z,49.80
2017-08-08T09:19:58.737Z,49.30
2017-08-08T09:22:26.802Z,49.30
2017-08-08T09:24:54.357Z,49.80
2017-08-08T09:27:21.998Z,48.80
2017-08-08T09:29:49.984Z,49.20
2017-08-08T09:32:17.581Z,49.10
2017-08-08T09:34:45.155Z,48.90
2017-08-08T09:37:13.335Z,48.20
2017-08-08T09:39:40.895Z,48.10
2017-08-08T09:42:08.452Z,47.70
2017-08-08T09:44:36.404Z,47.70
2017-08-08T09:47:04.001Z,47.50
2017-08-08T09:49:32.817Z,47.60
2017-08-08T09:52:00.710Z,48.10
2017-08-08T09:54:28.368Z,47.50
2017-08-08T09:56:56.596Z,48.10
2017-08-08T09:59:24.508Z,47.10
2017-08-08T10:01:52.127Z,47.10
2017-08-08T10:04:20.289Z,47.10
2017-08-08T10:06:48.201Z,47.10
2017-08-08T10:09:15.773Z,47.20
2017-08-08T10:11:43.459Z,47.00
2017-08-08T10:14:11.397Z,46.60
2017-08-08T10:16:39.125Z,46.60
2017-08-08T10:19:06.688Z,46.70
2017-08-08T10:21:34.533Z,47.00
2017-08-08T10:24:02.131Z,47.00
2017-08-08T10:26:29.854Z,47.10
2017-08-08T10:28:58.683Z,47.20
2017-08-08T10:31:26.297Z,47.20
2017-08-08T10:33:54.034Z,46.90
2017-08-08T10:36:23.061Z,46.60
2017-08-08T10:38:51.635Z,46.50
2017-08-08T10:41:19.933Z,46.50
2017-08-08T10:43:47.794Z,46.60
2017-08-08T10:46:15.371Z,46.60
2017-08-08T10:48:42.947Z,46.60
2017-08-08T10:51:10.832Z,46.30
2017-08-08T10:53:38.394Z,46.40
2017-08-08T10:56:05.963Z,46.50
2017-08-08T10:58:34.636Z,46.80
2017-08-08T11:01:02.201Z,46.10
2017-08-08T11:03:29.766Z,46.20
2017-08-08T11:05:58.439Z,46.00
2017-08-08T11:08:26.001Z,46.00
2017-08-08T11:10:53.569Z,45.70
2017-08-08T11:13:22.248Z,45.30
2017-08-08T11:15:49.863Z,45.30
2017-08-08T11:18:17.430Z,45.60
2017-08-08T11:20:45.371Z,45.50
2017-08-08T11:23:12.928Z,45.70
2017-08-08T11:25:40.549Z,45.60
2017-08-08T11:28:08.429Z,45.50
2017-08-08T11:30:36.288Z,46.00
2017-08-08T11:33:03.853Z,46.10
2017-08-08T11:35:31.884Z,46.30
2017-08-08T11:37:59.449Z,46.20
2017-08-08T11:40:27.003Z,46.00
2017-08-08T11:42:55.220Z,46.10
2017-08-08T11:45:22.773Z,45.90
2017-08-08T11:47:50.388Z,46.00
2017-08-08T11:50:18.265Z,45.70
2017-08-08T11:52:45.830Z,45.20
2017-08-08T11:55:13.392Z,45.30
2017-08-08T11:57:41.393Z,44.90
2017-08-08T12:00:09.911Z,46.50
2017-08-08T12:02:37.512Z,45.70
2017-08-08T12:05:05.408Z,45.70
2017-08-08T12:07:33.741Z,46.10
2017-08-08T12:10:01.300Z,46.10
2017-08-08T12:12:29.197Z,46.20
2017-08-08T12:14:56.768Z,46.30
2017-08-08T12:17:24.347Z,46.40
2017-08-08T12:19:53.145Z,46.50
2017-08-08T12:22:20.705Z,46.50
2017-08-08T12:24:48.315Z,46.90
2017-08-08T12:27:16.208Z,47.20
2017-08-08T12:29:44.516Z,48.10
2017-08-08T12:32:12.067Z,47.20
2017-08-08T12:34:40.165Z,47.30
2017-08-08T12:37:07.744Z,47.10
2017-08-08T12:39:35.310Z,47.20
2017-08-08T12:42:03.212Z,47.50
2017-08-08T12:44:31.632Z,47.90
2017-08-08T12:46:59.207Z,47.90
2017-08-08T12:49:27.376Z,47.90
2017-08-08T12:51:54.929Z,48.00
2017-08-08T12:54:22.571Z,47.60
2017-08-08T12:56:50.619Z,47.80
2017-08-08T12:59:18.943Z,47.70
2017-08-08T13:01:46.689Z,47.60
2017-08-08T13:04:14.611Z,47.40
2017-08-08T13:06:42.185Z,46.80
2017-08-08T13:09:09.747Z,45.70
2017-08-08T13:11:38.415Z,44.40
2017-08-08T13:14:06.011Z,44.40
2017-08-08T13:16:33.582Z,43.20
2017-08-08T13:19:01.460Z,41.50
2017-08-08T13:21:29.030Z,39.70
2017-08-08T13:23:56.606Z,40.20
2017-08-08T13:26:24.598Z,38.10
2017-08-08T13:28:52.928Z,35.70
2017-08-08T13:31:20.502Z,35.60
2017-08-08T13:33:48.590Z,35.80
2017-08-08T13:36:16.167Z,34.30
2017-08-08T13:38:43.739Z,33.80
2017-08-08T13:41:12.371Z,32.80
2017-08-08T13:43:40.098Z,32.80
2017-08-08T13:46:07.650Z,33.80
2017-08-08T13:48:35.588Z,33.10
2017-08-08T13:51:03.148Z,32.10
2017-08-08T13:53:30.739Z,31.70
2017-08-08T13:55:58.780Z,30.30
2017-08-08T13:58:26.336Z,29.70
2017-08-08T14:00:53.897Z,30.00
2017-08-08T14:03:22.341Z,30.30
2017-08-08T14:05:50.009Z,29.00
2017-08-08T14:08:17.566Z,28.20
2017-08-08T14:10:45.561Z,27.70
2017-08-08T14:13:13.117Z,28.50
2017-08-08T14:15:40.686Z,27.50
2017-08-08T14:18:08.848Z,26.40
2017-08-08T14:20:36.409Z,29.20
2017-08-08T14:23:03.977Z,28.90
2017-08-08T14:25:31.949Z,29.80
2017-08-08T14:27:59.534Z,31.00
2017-08-08T14:30:27.141Z,31.70
2017-08-08T14:32:55.136Z,32.20
2017-08-08T14:35:22.697Z,31.50
2017-08-08T14:37:50.297Z,32.20
2017-08-08T14:40:18.278Z,32.60
2017-08-08T14:42:45.857Z,33.40
2017-08-08T14:45:13.423Z,33.20
2017-08-08T14:47:41.523Z,33.90
2017-08-08T14:50:09.092Z,34.10
2017-08-08T14:52:36.642Z,35.00
2017-08-08T14:55:04.512Z,35.50
2017-08-08T14:57:32.951Z,36.30
2017-08-08T15:00:00.513Z,36.20
2017-08-08T15:02:28.518Z,37.00
2017-08-08T15:04:56.103Z,38.10
2017-08-08T15:07:23.680Z,38.40
2017-08-08T15:09:51.767Z,38.40
2017-08-08T15:12:19.351Z,38.20
2017-08-08T15:14:46.904Z,38.00
2017-08-08T15:17:14.766Z,38.30
2017-08-08T15:19:42.339Z,38.90
2017-08-08T15:22:09.947Z,39.40
2017-08-08T15:24:37.892Z,39.10
2017-08-08T15:27:05.469Z,38.80
2017-08-08T15:29:33.048Z,38.80
2017-08-08T15:32:01.082Z,37.50
2017-08-08T15:34:28.741Z,36.50
2017-08-08T15:36:56.311Z,34.30
2017-08-08T15:39:24.263Z,32.40
2017-08-08T15:41:51.815Z,31.90
2017-08-08T15:44:19.407Z,30.60
2017-08-08T15:46:48.062Z,27.60
2017-08-08T15:49:15.638Z,27.40
2017-08-08T15:51:43.210Z,26.20
2017-08-08T15:54:11.876Z,23.70
2017-08-08T15:56:39.440Z,23.60
2017-08-08T15:59:06.996Z,22.70
2017-08-08T16:01:34.925Z,21.40
2017-08-08T16:04:02.476Z,21.80
2017-08-08T16:06:30.075Z,20.60
2017-08-08T16:08:58.053Z,20.30
2017-08-08T16:11:25.630Z,19.90
2017-08-08T16:13:53.206Z,19.70
2017-08-08T16:16:21.247Z,19.30
2017-08-08T16:18:48.818Z,20.30
2017-08-08T16:21:16.401Z,21.00
2017-08-08T16:23:44.444Z,21.70
2017-08-08T16:26:12.026Z,22.90
2017-08-08T16:28:39.617Z,25.00
2017-08-08T16:31:07.493Z,26.30
2017-08-08T16:33:35.085Z,28.00
2017-08-08T16:36:02.652Z,28.10
2017-08-08T16:38:30.612Z,29.20
2017-08-08T16:40:58.205Z,30.10
2017-08-08T16:43:25.775Z,31.60
2017-08-08T16:45:53.656Z,32.20
2017-08-08T16:48:21.224Z,33.20
2017-08-08T16:50:48.778Z,34.10
2017-08-08T16:53:16.797Z,34.80
2017-08-08T16:55:45.160Z,36.40
2017-08-08T16:58:12.747Z,36.20
2017-08-08T17:00:41.400Z,38.00
2017-08-08T17:03:08.967Z,37.90
2017-08-08T17:05:36.544Z,37.80
2017-08-08T17:08:05.213Z,37.90
2017-08-08T17:10:32.813Z,37.60
2017-08-08T17:13:00.388Z,37.70
2017-08-08T17:15:28.418Z,38.40
2017-08-08T17:17:56.774Z,38.90
2017-08-08T17:20:24.320Z,39.20
2017-08-08T17:22:52.430Z,39.50
2017-08-08T17:25:20.784Z,40.40
2017-08-08T17:27:48.337Z,40.30
2017-08-08T17:30:16.432Z,40.40
2017-08-08T17:32:44.214Z,40.80
2017-08-08T17:35:11.788Z,41.30
2017-08-08T17:37:39.821Z,41.70
2017-08-08T17:40:07.412Z,41.50
2017-08-08T17:42:35.000Z,41.70
2017-08-08T17:45:02.955Z,41.80
2017-08-08T17:47:30.535Z,42.00
2017-08-08T17:49:58.157Z,42.20
2017-08-08T17:52:25.773Z,42.80
2017-08-08T17:54:53.620Z,43.30
2017-08-08T17:57:21.741Z,43.60
2017-08-08T17:59:49.305Z,43.60
2017-08-08T18:02:16.861Z,43.60
2017-08-08T18:04:45.244Z,44.20
2017-08-08T18:07:12.808Z,44.20
2017-08-08T18:09:41.478Z,45.00
2017-08-08T18:12:09.094Z,44.90
2017-08-08T18:14:36.673Z,45.20
2017-08-08T18:17:04.324Z,45.20
2017-08-08T18:19:31.886Z,45.50
2017-08-08T18:21:59.788Z,45.60
2017-08-08T18:24:28.111Z,46.30
2017-08-08T18:26:55.680Z,45.70
2017-08-08T18:29:23.305Z,46.00
2017-08-08T18:31:50.909Z,46.30
2017-08-08T18:34:18.816Z,46.60
2017-08-08T18:36:46.409Z,46.50
2017-08-08T18:39:13.988Z,46.60
2017-08-08T18:41:41.607Z,47.00
2017-08-08T18:44:09.205Z,47.00
2017-08-08T18:46:37.642Z,47.50
2017-08-08T18:49:05.980Z,47.80
2017-08-08T18:51:34.366Z,47.60
2017-08-08T18:54:01.977Z,47.40
2017-08-08T18:56:29.558Z,48.00
2017-08-08T18:58:57.478Z,48.10
2017-08-08T19:01:25.057Z,48.00
2017-08-08T19:03:53.395Z,48.60
2017-08-08T19:06:21.346Z,48.60
2017-08-08T19:08:48.904Z,48.40
2017-08-08T19:11:16.936Z,48.60
2017-08-08T19:13:45.285Z,48.80
2017-08-08T19:16:12.847Z,48.80
2017-08-08T19:18:40.527Z,48.80
2017-08-08T19:21:08.874Z,49.40
2017-08-08T19:23:36.805Z,48.80
2017-08-08T19:26:04.559Z,48.40
2017-08-08T19:28:32.124Z,48.80
2017-08-08T19:30:59.717Z,48.80
2017-08-08T19:33:27.302Z,49.00
2017-08-08T19:35:54.923Z,49.20
2017-08-08T19:38:22.487Z,49.50
2017-08-08T19:40:50.108Z,49.40
2017-08-08T19:43:18.400Z,49.30
2017-08-08T19:45:46.453Z,49.40
2017-08-08T19:48:14.783Z,49.30
2017-08-08T19:50:42.379Z,49.30
2017-08-08T19:53:11.710Z,49.50
2017-08-08T19:55:39.308Z,49.40
2017-08-08T19:58:07.211Z,49.50
2017-08-08T20:00:35.578Z,49.50
2017-08-08T20:03:03.158Z,49.40
2017-08-08T20:05:31.598Z,49.50
2017-08-08T20:07:59.193Z,49.40
2017-08-08T20:10:27.356Z,49.50
2017-08-08T20:12:54.929Z,49.50
2017-08-08T20:15:22.520Z,49.50
2017-08-08T20:17:50.181Z,49.50
2017-08-08T20:20:17.776Z,49.50
2017-08-08T20:22:45.656Z,49.50
2017-08-08T20:25:13.223Z,49.50
2017-08-08T20:27:40.780Z,49.50
2017-08-08T20:30:08.373Z,50.00
2017-08-08T20:32:35.962Z,49.80
2017-08-08T20:35:03.976Z,49.60
2017-08-08T20:37:31.580Z,50.20
2017-08-08T20:39:59.146Z,50.10
2017-08-08T20:42:26.767Z,50.50
2017-08-08T20:44:55.108Z,53.60
2017-08-08T20:47:22.990Z,52.60
2017-08-08T20:49:50.598Z,53.00
2017-08-08T20:52:18.164Z,54.50
2017-08-08T20:54:45.774Z,55.40
2017-08-08T20:57:13.344Z,56.00
2017-08-08T20:59:41.009Z,56.30
2017-08-08T21:02:08.594Z,56.80
2017-08-08T21:04:37.286Z,57.10
2017-08-08T21:07:04.899Z,56.90
2017-08-08T21:09:32.559Z,57.40
2017-08-08T21:12:00.212Z,58.10
2017-08-08T21:14:27.782Z,57.60
2017-08-08T21:16:55.869Z,57.90
2017-08-08T21:19:23.445Z,57.80
2017-08-08T21:21:51.013Z,57.00
2017-08-08T21:24:18.650Z,58.10
2017-08-08T21:26:46.984Z,59.30
2017-08-08T21:29:15.011Z,58.20
2017-08-08T21:31:43.354Z,59.30
2017-08-08T21:34:10.922Z,59.20
2017-08-08T21:36:38.532Z,60.20
2017-08-08T21:39:06.099Z,59.90
2017-08-08T21:41:33.996Z,60.20
2017-08-08T21:44:01.741Z,60.10
2017-08-08T21:46:29.299Z,60.60
2017-08-08T21:48:56.924Z,60.50
2017-08-08T21:51:25.431Z,61.00
2017-08-08T21:53:53.298Z,60.90
2017-08-08T21:56:20.848Z,61.30
2017-08-08T21:58:48.395Z,61.70
2017-08-08T22:01:16.782Z,61.70
2017-08-08T22:03:44.336Z,61.70
2017-08-08T22:06:12.384Z,61.70
2017-08-08T22:08:39.943Z,61.60
2017-08-08T22:11:07.598Z,61.60
2017-08-08T22:13:35.200Z,61.60
2017-08-08T22:16:02.760Z,61.60
2017-08-08T22:18:30.680Z,61.60
2017-08-08T22:20:58.217Z,61.60
2017-08-08T22:23:25.761Z,61.60
2017-08-08T22:25:53.365Z,61.60
2017-08-08T22:28:21.145Z,61.50
2017-08-08T22:30:50.003Z,61.60
2017-08-08T22:33:17.547Z,61.40
2017-08-08T22:35:45.113Z,61.60
2017-08-08T22:38:12.699Z,61.50
2017-08-08T22:40:40.267Z,61.40
2017-08-08T22:43:08.199Z,61.50
2017-08-08T22:45:35.733Z,61.50
2017-08-08T22:48:03.294Z,61.50
2017-08-08T22:50:31.083Z,61.50
2017-08-08T22:52:58.644Z,62.60
2017-08-08T22:55:26.637Z,63.00
2017-08-08T22:57:54.190Z,62.90
2017-08-08T23:03:15.109Z,63.70
2017-08-08T23:05:42.655Z,64.10
2017-08-08T23:08:10.254Z,64.40
2017-08-08T23:10:37.828Z,64.50
2017-08-08T23:13:05.911Z,65.50
2017-08-08T23:15:33.524Z,65.70
2017-08-08T23:18:01.065Z,65.70
2017-08-08T23:20:29.425Z,65.70
2017-08-08T23:22:56.970Z,65.60
2017-08-08T23:25:24.835Z,65.70
2017-08-08T23:27:52.396Z,65.70
2017-08-08T23:30:19.964Z,66.30
2017-08-08T23:32:47.555Z,66.30
2017-08-08T23:35:15.108Z,66.20
2017-08-08T23:37:43.771Z,66.60
2017-08-08T23:40:11.327Z,66.50
2017-08-08T23:42:38.884Z,67.30
2017-08-08T23:45:06.463Z,67.40
2017-08-08T23:47:34.023Z,67.40
2017-08-08T23:50:01.951Z,67.50
2017-08-08T23:52:29.534Z,67.10
2017-08-08T23:54:57.084Z,67.00
2017-08-08T23:57:24.683Z,67.50
2017-08-08T23:59:53.040Z,67.50
